sensor_id;sensor_type;location;lat;lon;timestamp;P1;durP1;ratioP1;P2;durP2;ratioP2
20230;SDS011;10274;49.022;9.338;2023-02-28T00:00:47;2.30;;;1.50;;
20230;SDS011;10274;49.022;9.338;2023-02-28T00:03:14;1.27;;;1.17;;
20230;SDS011;10274;49.022;9.338;2023-02-28T00:05:41;1.53;;;1.20;;
20230;SDS011;10274;49.022;9.338;2023-02-28T00:08:08;1.33;;;1.23;;
20230;SDS011;10274;49.022;9.338;2023-02-28T00:10:35;2.33;;;1.50;;
20230;SDS011;10274;49.022;9.338;2023-02-28T00:13:04;1.63;;;1.30;;
20230;SDS011;10274;49.022;9.338;2023-02-28T00:15:32;2.33;;;1.83;;
20230;SDS011;10274;49.022;9.338;2023-02-28T00:17:59;1.67;;;1.10;;
20230;SDS011;10274;49.022;9.338;2023-02-28T00:20:26;1.37;;;1.27;;
20230;SDS011;10274;49.022;9.338;2023-02-28T00:22:53;2.60;;;1.47;;
20230;SDS011;10274;49.022;9.338;2023-02-28T00:25:20;1.57;;;1.47;;
20230;SDS011;10274;49.022;9.338;2023-02-28T00:27:48;2.07;;;1.73;;
20230;SDS011;10274;49.022;9.338;2023-02-28T00:30:17;1.50;;;1.40;;
20230;SDS011;10274;49.022;9.338;2023-02-28T00:32:45;2.00;;;1.50;;
20230;SDS011;10274;49.022;9.338;2023-02-28T00:35:12;2.03;;;1.43;;
20230;SDS011;10274;49.022;9.338;2023-02-28T00:37:39;1.50;;;1.23;;
20230;SDS011;10274;49.022;9.338;2023-02-28T00:40:06;1.73;;;1.27;;
20230;SDS011;10274;49.022;9.338;2023-02-28T00:42:36;1.60;;;1.43;;
20230;SDS011;10274;49.022;9.338;2023-02-28T00:45:03;1.40;;;1.30;;
20230;SDS011;10274;49.022;9.338;2023-02-28T00:47:32;1.67;;;1.47;;
20230;SDS011;10274;49.022;9.338;2023-02-28T00:49:58;1.73;;;1.50;;
20230;SDS011;10274;49.022;9.338;2023-02-28T00:52:26;2.70;;;1.60;;
20230;SDS011;10274;49.022;9.338;2023-02-28T00:54:52;1.43;;;1.33;;
20230;SDS011;10274;49.022;9.338;2023-02-28T00:57:19;1.73;;;1.37;;
20230;SDS011;10274;49.022;9.338;2023-02-28T00:59:46;1.30;;;1.20;;
20230;SDS011;10274;49.022;9.338;2023-02-28T01:02:12;1.70;;;1.30;;
20230;SDS011;10274;49.022;9.338;2023-02-28T01:04:40;3.13;;;1.60;;
20230;SDS011;10274;49.022;9.338;2023-02-28T01:07:07;2.53;;;1.90;;
20230;SDS011;10274;49.022;9.338;2023-02-28T01:09:34;2.33;;;1.90;;
20230;SDS011;10274;49.022;9.338;2023-02-28T01:12:00;1.73;;;1.10;;
20230;SDS011;10274;49.022;9.338;2023-02-28T01:14:27;1.30;;;1.20;;
20230;SDS011;10274;49.022;9.338;2023-02-28T01:16:54;2.13;;;1.30;;
20230;SDS011;10274;49.022;9.338;2023-02-28T01:19:20;2.40;;;1.60;;
20230;SDS011;10274;49.022;9.338;2023-02-28T01:21:48;1.63;;;1.40;;
20230;SDS011;10274;49.022;9.338;2023-02-28T01:24:15;1.70;;;1.30;;
20230;SDS011;10274;49.022;9.338;2023-02-28T01:26:42;1.47;;;1.37;;
20230;SDS011;10274;49.022;9.338;2023-02-28T01:29:08;1.60;;;1.50;;
20230;SDS011;10274;49.022;9.338;2023-02-28T01:31:35;2.10;;;1.00;;
20230;SDS011;10274;49.022;9.338;2023-02-28T01:34:02;1.50;;;1.40;;
20230;SDS011;10274;49.022;9.338;2023-02-28T01:36:29;2.87;;;1.57;;
20230;SDS011;10274;49.022;9.338;2023-02-28T01:38:57;1.23;;;1.13;;
20230;SDS011;10274;49.022;9.338;2023-02-28T01:41:25;1.83;;;1.50;;
20230;SDS011;10274;49.022;9.338;2023-02-28T01:43:54;1.90;;;1.27;;
20230;SDS011;10274;49.022;9.338;2023-02-28T01:46:23;1.90;;;1.50;;
20230;SDS011;10274;49.022;9.338;2023-02-28T01:48:51;2.33;;;1.60;;
20230;SDS011;10274;49.022;9.338;2023-02-28T01:51:22;1.93;;;1.10;;
20230;SDS011;10274;49.022;9.338;2023-02-28T01:53:52;1.60;;;1.50;;
20230;SDS011;10274;49.022;9.338;2023-02-28T01:56:24;1.50;;;1.20;;
20230;SDS011;10274;49.022;9.338;2023-02-28T01:58:54;1.10;;;1.00;;
20230;SDS011;10274;49.022;9.338;2023-02-28T02:01:22;2.17;;;1.70;;
20230;SDS011;10274;49.022;9.338;2023-02-28T02:03:50;1.67;;;1.57;;
20230;SDS011;10274;49.022;9.338;2023-02-28T02:06:21;2.40;;;1.37;;
20230;SDS011;10274;49.022;9.338;2023-02-28T02:08:48;1.57;;;1.43;;
20230;SDS011;10274;49.022;9.338;2023-02-28T02:11:16;1.60;;;1.50;;
20230;SDS011;10274;49.022;9.338;2023-02-28T02:13:51;1.30;;;1.20;;
20230;SDS011;10274;49.022;9.338;2023-02-28T02:16:37;2.47;;;2.07;;
20230;SDS011;10274;49.022;9.338;2023-02-28T02:19:19;1.60;;;1.50;;
20230;SDS011;10274;49.022;9.338;2023-02-28T02:22:12;2.20;;;1.77;;
20230;SDS011;10274;49.022;9.338;2023-02-28T02:25:08;1.60;;;1.50;;
20230;SDS011;10274;49.022;9.338;2023-02-28T02:27:48;2.43;;;2.17;;
20230;SDS011;10274;49.022;9.338;2023-02-28T02:33:37;1.70;;;1.60;;
20230;SDS011;10274;49.022;9.338;2023-02-28T02:36:27;1.77;;;1.60;;
20230;SDS011;10274;49.022;9.338;2023-02-28T02:38:57;1.70;;;1.60;;
20230;SDS011;10274;49.022;9.338;2023-02-28T02:41:29;1.73;;;1.63;;
20230;SDS011;10274;49.022;9.338;2023-02-28T02:44:02;2.00;;;1.67;;
20230;SDS011;10274;49.022;9.338;2023-02-28T02:46:33;2.00;;;1.50;;
20230;SDS011;10274;49.022;9.338;2023-02-28T02:49:05;1.77;;;1.47;;
20230;SDS011;10274;49.022;9.338;2023-02-28T02:51:35;1.60;;;1.47;;
20230;SDS011;10274;49.022;9.338;2023-02-28T02:54:05;1.67;;;1.33;;
20230;SDS011;10274;49.022;9.338;2023-02-28T02:56:34;3.10;;;1.73;;
20230;SDS011;10274;49.022;9.338;2023-02-28T02:59:06;1.93;;;1.40;;
20230;SDS011;10274;49.022;9.338;2023-02-28T03:01:37;2.67;;;1.73;;
20230;SDS011;10274;49.022;9.338;2023-02-28T03:04:08;2.00;;;1.70;;
20230;SDS011;10274;49.022;9.338;2023-02-28T03:06:37;1.80;;;1.70;;
20230;SDS011;10274;49.022;9.338;2023-02-28T03:09:04;1.83;;;1.47;;
20230;SDS011;10274;49.022;9.338;2023-02-28T03:11:31;3.33;;;1.67;;
20230;SDS011;10274;49.022;9.338;2023-02-28T03:14:04;2.83;;;2.10;;
20230;SDS011;10274;49.022;9.338;2023-02-28T03:16:53;1.70;;;1.50;;
20230;SDS011;10274;49.022;9.338;2023-02-28T03:19:36;3.07;;;1.70;;
20230;SDS011;10274;49.022;9.338;2023-02-28T03:22:14;2.53;;;2.27;;
20230;SDS011;10274;49.022;9.338;2023-02-28T03:25:00;2.30;;;1.73;;
20230;SDS011;10274;49.022;9.338;2023-02-28T03:27:35;1.93;;;1.70;;
20230;SDS011;10274;49.022;9.338;2023-02-28T03:30:06;2.67;;;1.90;;
20230;SDS011;10274;49.022;9.338;2023-02-28T03:32:40;2.13;;;1.60;;
20230;SDS011;10274;49.022;9.338;2023-02-28T03:35:14;1.77;;;1.50;;
20230;SDS011;10274;49.022;9.338;2023-02-28T03:37:46;2.20;;;1.87;;
20230;SDS011;10274;49.022;9.338;2023-02-28T03:40:17;2.43;;;1.80;;
20230;SDS011;10274;49.022;9.338;2023-02-28T03:42:48;1.70;;;1.50;;
20230;SDS011;10274;49.022;9.338;2023-02-28T03:45:17;1.90;;;1.80;;
20230;SDS011;10274;49.022;9.338;2023-02-28T03:47:49;2.07;;;1.47;;
20230;SDS011;10274;49.022;9.338;2023-02-28T03:50:21;4.03;;;2.30;;
20230;SDS011;10274;49.022;9.338;2023-02-28T03:52:51;2.20;;;2.00;;
20230;SDS011;10274;49.022;9.338;2023-02-28T03:55:26;1.93;;;1.70;;
20230;SDS011;10274;49.022;9.338;2023-02-28T03:57:56;2.37;;;1.93;;
20230;SDS011;10274;49.022;9.338;2023-02-28T04:00:28;3.33;;;2.17;;
20230;SDS011;10274;49.022;9.338;2023-02-28T04:02:59;2.47;;;2.10;;
20230;SDS011;10274;49.022;9.338;2023-02-28T04:05:27;2.90;;;2.00;;
20230;SDS011;10274;49.022;9.338;2023-02-28T04:07:59;3.50;;;2.03;;
20230;SDS011;10274;49.022;9.338;2023-02-28T04:10:30;2.77;;;2.23;;
20230;SDS011;10274;49.022;9.338;2023-02-28T04:12:57;2.73;;;1.97;;
20230;SDS011;10274;49.022;9.338;2023-02-28T04:15:23;2.47;;;2.13;;
20230;SDS011;10274;49.022;9.338;2023-02-28T04:17:52;2.50;;;2.00;;
20230;SDS011;10274;49.022;9.338;2023-02-28T04:20:19;2.50;;;2.23;;
20230;SDS011;10274;49.022;9.338;2023-02-28T04:22:47;2.30;;;1.87;;
20230;SDS011;10274;49.022;9.338;2023-02-28T04:25:13;2.57;;;2.07;;
20230;SDS011;10274;49.022;9.338;2023-02-28T04:27:40;2.73;;;1.97;;
20230;SDS011;10274;49.022;9.338;2023-02-28T04:30:09;1.90;;;1.80;;
20230;SDS011;10274;49.022;9.338;2023-02-28T04:32:37;2.97;;;2.67;;
20230;SDS011;10274;49.022;9.338;2023-02-28T04:35:04;3.17;;;2.20;;
20230;SDS011;10274;49.022;9.338;2023-02-28T04:37:31;1.97;;;1.77;;
20230;SDS011;10274;49.022;9.338;2023-02-28T04:40:01;3.60;;;2.20;;
20230;SDS011;10274;49.022;9.338;2023-02-28T04:42:28;2.93;;;2.20;;
20230;SDS011;10274;49.022;9.338;2023-02-28T04:45:00;2.90;;;2.60;;
20230;SDS011;10274;49.022;9.338;2023-02-28T04:47:27;2.53;;;2.33;;
20230;SDS011;10274;49.022;9.338;2023-02-28T04:49:53;2.40;;;1.70;;
20230;SDS011;10274;49.022;9.338;2023-02-28T04:52:20;2.77;;;2.37;;
20230;SDS011;10274;49.022;9.338;2023-02-28T04:54:47;3.83;;;2.43;;
20230;SDS011;10274;49.022;9.338;2023-02-28T04:57:15;2.33;;;1.93;;
20230;SDS011;10274;49.022;9.338;2023-02-28T04:59:41;2.13;;;1.93;;
20230;SDS011;10274;49.022;9.338;2023-02-28T05:02:09;3.20;;;1.93;;
20230;SDS011;10274;49.022;9.338;2023-02-28T05:04:36;2.93;;;1.83;;
20230;SDS011;10274;49.022;9.338;2023-02-28T05:07:02;2.17;;;1.90;;
20230;SDS011;10274;49.022;9.338;2023-02-28T05:09:29;2.63;;;1.83;;
20230;SDS011;10274;49.022;9.338;2023-02-28T05:11:57;3.37;;;2.20;;
20230;SDS011;10274;49.022;9.338;2023-02-28T05:14:26;2.03;;;1.70;;
20230;SDS011;10274;49.022;9.338;2023-02-28T05:16:52;2.80;;;2.10;;
20230;SDS011;10274;49.022;9.338;2023-02-28T05:19:19;4.00;;;2.67;;
20230;SDS011;10274;49.022;9.338;2023-02-28T05:21:50;2.00;;;1.63;;
20230;SDS011;10274;49.022;9.338;2023-02-28T05:24:18;3.17;;;2.30;;
20230;SDS011;10274;49.022;9.338;2023-02-28T05:26:48;2.57;;;2.30;;
20230;SDS011;10274;49.022;9.338;2023-02-28T05:29:16;2.80;;;1.90;;
20230;SDS011;10274;49.022;9.338;2023-02-28T05:31:45;2.97;;;1.90;;
20230;SDS011;10274;49.022;9.338;2023-02-28T05:34:12;3.80;;;2.10;;
20230;SDS011;10274;49.022;9.338;2023-02-28T05:36:40;3.20;;;2.23;;
20230;SDS011;10274;49.022;9.338;2023-02-28T05:39:07;2.20;;;1.97;;
20230;SDS011;10274;49.022;9.338;2023-02-28T05:41:37;2.53;;;2.30;;
20230;SDS011;10274;49.022;9.338;2023-02-28T05:44:05;2.83;;;2.20;;
20230;SDS011;10274;49.022;9.338;2023-02-28T05:46:31;3.87;;;2.40;;
20230;SDS011;10274;49.022;9.338;2023-02-28T05:48:59;2.80;;;2.20;;
20230;SDS011;10274;49.022;9.338;2023-02-28T05:51:26;3.23;;;2.33;;
20230;SDS011;10274;49.022;9.338;2023-02-28T05:53:53;3.47;;;2.20;;
20230;SDS011;10274;49.022;9.338;2023-02-28T05:56:20;3.00;;;2.10;;
20230;SDS011;10274;49.022;9.338;2023-02-28T05:58:46;2.37;;;2.13;;
20230;SDS011;10274;49.022;9.338;2023-02-28T06:01:20;2.80;;;2.30;;
20230;SDS011;10274;49.022;9.338;2023-02-28T06:03:57;3.60;;;2.53;;
20230;SDS011;10274;49.022;9.338;2023-02-28T06:06:26;4.10;;;2.57;;
20230;SDS011;10274;49.022;9.338;2023-02-28T06:08:53;2.80;;;2.50;;
20230;SDS011;10274;49.022;9.338;2023-02-28T06:11:19;2.93;;;2.43;;
20230;SDS011;10274;49.022;9.338;2023-02-28T06:13:46;2.17;;;1.93;;
20230;SDS011;10274;49.022;9.338;2023-02-28T06:16:13;2.83;;;2.30;;
20230;SDS011;10274;49.022;9.338;2023-02-28T06:18:40;3.73;;;2.00;;
20230;SDS011;10274;49.022;9.338;2023-02-28T06:21:08;3.47;;;2.33;;
20230;SDS011;10274;49.022;9.338;2023-02-28T06:23:34;2.57;;;2.20;;
20230;SDS011;10274;49.022;9.338;2023-02-28T06:26:01;3.10;;;2.60;;
20230;SDS011;10274;49.022;9.338;2023-02-28T06:28:28;4.10;;;2.47;;
20230;SDS011;10274;49.022;9.338;2023-02-28T06:30:55;2.87;;;2.30;;
20230;SDS011;10274;49.022;9.338;2023-02-28T06:33:21;4.60;;;2.87;;
20230;SDS011;10274;49.022;9.338;2023-02-28T06:35:49;3.30;;;2.73;;
20230;SDS011;10274;49.022;9.338;2023-02-28T06:38:18;3.00;;;2.70;;
20230;SDS011;10274;49.022;9.338;2023-02-28T06:40:52;2.80;;;2.00;;
20230;SDS011;10274;49.022;9.338;2023-02-28T06:43:19;3.73;;;2.77;;
20230;SDS011;10274;49.022;9.338;2023-02-28T06:45:46;3.13;;;2.07;;
20230;SDS011;10274;49.022;9.338;2023-02-28T06:48:12;3.53;;;2.33;;
20230;SDS011;10274;49.022;9.338;2023-02-28T06:50:39;2.77;;;2.10;;
20230;SDS011;10274;49.022;9.338;2023-02-28T06:53:06;2.73;;;2.20;;
20230;SDS011;10274;49.022;9.338;2023-02-28T06:55:34;3.43;;;2.40;;
20230;SDS011;10274;49.022;9.338;2023-02-28T06:58:03;2.53;;;1.97;;
20230;SDS011;10274;49.022;9.338;2023-02-28T07:00:39;4.53;;;3.03;;
20230;SDS011;10274;49.022;9.338;2023-02-28T07:03:06;3.47;;;2.90;;
20230;SDS011;10274;49.022;9.338;2023-02-28T07:05:34;2.60;;;2.40;;
20230;SDS011;10274;49.022;9.338;2023-02-28T07:08:01;3.37;;;2.70;;
20230;SDS011;10274;49.022;9.338;2023-02-28T07:10:28;3.97;;;2.27;;
20230;SDS011;10274;49.022;9.338;2023-02-28T07:12:56;2.73;;;2.30;;
20230;SDS011;10274;49.022;9.338;2023-02-28T07:15:22;2.77;;;2.43;;
20230;SDS011;10274;49.022;9.338;2023-02-28T07:17:49;4.23;;;2.20;;
20230;SDS011;10274;49.022;9.338;2023-02-28T07:20:16;3.80;;;2.60;;
20230;SDS011;10274;49.022;9.338;2023-02-28T07:22:43;3.50;;;2.60;;
20230;SDS011;10274;49.022;9.338;2023-02-28T07:25:09;2.63;;;2.40;;
20230;SDS011;10274;49.022;9.338;2023-02-28T07:27:36;2.50;;;2.03;;
20230;SDS011;10274;49.022;9.338;2023-02-28T07:30:05;4.90;;;3.00;;
20230;SDS011;10274;49.022;9.338;2023-02-28T07:32:33;2.73;;;2.30;;
20230;SDS011;10274;49.022;9.338;2023-02-28T07:35:02;4.33;;;3.10;;
20230;SDS011;10274;49.022;9.338;2023-02-28T07:37:29;4.40;;;2.30;;
20230;SDS011;10274;49.022;9.338;2023-02-28T07:40:01;3.50;;;2.70;;
20230;SDS011;10274;49.022;9.338;2023-02-28T07:42:31;3.17;;;2.80;;
20230;SDS011;10274;49.022;9.338;2023-02-28T07:44:58;3.13;;;2.63;;
20230;SDS011;10274;49.022;9.338;2023-02-28T07:47:26;2.83;;;2.50;;
20230;SDS011;10274;49.022;9.338;2023-02-28T07:49:54;3.17;;;2.87;;
20230;SDS011;10274;49.022;9.338;2023-02-28T07:52:21;3.87;;;2.60;;
20230;SDS011;10274;49.022;9.338;2023-02-28T07:54:49;3.97;;;2.80;;
20230;SDS011;10274;49.022;9.338;2023-02-28T07:57:16;3.00;;;2.63;;
20230;SDS011;10274;49.022;9.338;2023-02-28T07:59:43;2.60;;;2.20;;
20230;SDS011;10274;49.022;9.338;2023-02-28T08:02:10;3.37;;;2.60;;
20230;SDS011;10274;49.022;9.338;2023-02-28T08:04:41;3.13;;;2.30;;
20230;SDS011;10274;49.022;9.338;2023-02-28T08:07:07;3.80;;;2.47;;
20230;SDS011;10274;49.022;9.338;2023-02-28T08:09:38;3.27;;;2.33;;
20230;SDS011;10274;49.022;9.338;2023-02-28T08:12:05;2.17;;;1.93;;
20230;SDS011;10274;49.022;9.338;2023-02-28T08:14:32;2.57;;;1.97;;
20230;SDS011;10274;49.022;9.338;2023-02-28T08:16:59;2.60;;;2.10;;
20230;SDS011;10274;49.022;9.338;2023-02-28T08:19:26;4.17;;;2.40;;
20230;SDS011;10274;49.022;9.338;2023-02-28T08:21:54;2.60;;;2.40;;
20230;SDS011;10274;49.022;9.338;2023-02-28T08:24:21;3.23;;;2.40;;
20230;SDS011;10274;49.022;9.338;2023-02-28T08:26:48;2.20;;;2.00;;
20230;SDS011;10274;49.022;9.338;2023-02-28T08:29:15;2.10;;;1.90;;
20230;SDS011;10274;49.022;9.338;2023-02-28T08:31:42;3.27;;;2.17;;
20230;SDS011;10274;49.022;9.338;2023-02-28T08:34:09;2.90;;;1.97;;
20230;SDS011;10274;49.022;9.338;2023-02-28T08:36:37;4.37;;;2.63;;
20230;SDS011;10274;49.022;9.338;2023-02-28T08:39:06;2.40;;;2.20;;
20230;SDS011;10274;49.022;9.338;2023-02-28T08:41:34;3.60;;;1.80;;
20230;SDS011;10274;49.022;9.338;2023-02-28T08:44:00;2.83;;;2.13;;
20230;SDS011;10274;49.022;9.338;2023-02-28T08:46:27;2.33;;;2.13;;
20230;SDS011;10274;49.022;9.338;2023-02-28T08:48:54;3.77;;;2.30;;
20230;SDS011;10274;49.022;9.338;2023-02-28T08:51:24;2.43;;;2.10;;
20230;SDS011;10274;49.022;9.338;2023-02-28T08:53:52;2.77;;;2.10;;
20230;SDS011;10274;49.022;9.338;2023-02-28T08:56:21;2.20;;;1.97;;
20230;SDS011;10274;49.022;9.338;2023-02-28T08:58:48;4.30;;;2.40;;
20230;SDS011;10274;49.022;9.338;2023-02-28T09:01:17;4.30;;;2.17;;
20230;SDS011;10274;49.022;9.338;2023-02-28T09:03:45;5.80;;;2.43;;
20230;SDS011;10274;49.022;9.338;2023-02-28T09:06:13;2.57;;;2.00;;
20230;SDS011;10274;49.022;9.338;2023-02-28T09:08:41;6.17;;;2.93;;
20230;SDS011;10274;49.022;9.338;2023-02-28T09:11:08;3.20;;;1.97;;
20230;SDS011;10274;49.022;9.338;2023-02-28T09:13:37;1.90;;;1.70;;
20230;SDS011;10274;49.022;9.338;2023-02-28T09:16:05;2.23;;;1.80;;
20230;SDS011;10274;49.022;9.338;2023-02-28T09:18:34;1.80;;;1.63;;
20230;SDS011;10274;49.022;9.338;2023-02-28T09:21:02;4.30;;;2.33;;
20230;SDS011;10274;49.022;9.338;2023-02-28T09:23:29;2.63;;;2.10;;
20230;SDS011;10274;49.022;9.338;2023-02-28T09:25:56;2.93;;;2.60;;
20230;SDS011;10274;49.022;9.338;2023-02-28T09:28:23;2.40;;;2.20;;
20230;SDS011;10274;49.022;9.338;2023-02-28T09:30:52;2.83;;;2.03;;
20230;SDS011;10274;49.022;9.338;2023-02-28T09:33:20;1.97;;;1.77;;
20230;SDS011;10274;49.022;9.338;2023-02-28T09:35:47;3.53;;;2.17;;
20230;SDS011;10274;49.022;9.338;2023-02-28T09:38:14;3.20;;;2.40;;
20230;SDS011;10274;49.022;9.338;2023-02-28T09:40:45;3.40;;;2.37;;
20230;SDS011;10274;49.022;9.338;2023-02-28T09:43:15;2.63;;;2.00;;
20230;SDS011;10274;49.022;9.338;2023-02-28T09:45:45;3.03;;;2.73;;
20230;SDS011;10274;49.022;9.338;2023-02-28T09:48:20;3.30;;;2.10;;
20230;SDS011;10274;49.022;9.338;2023-02-28T09:50:51;2.97;;;2.67;;
20230;SDS011;10274;49.022;9.338;2023-02-28T09:53:22;1.83;;;1.47;;
20230;SDS011;10274;49.022;9.338;2023-02-28T09:55:58;3.33;;;2.43;;
20230;SDS011;10274;49.022;9.338;2023-02-28T09:58:30;2.50;;;2.03;;
20230;SDS011;10274;49.022;9.338;2023-02-28T10:01:02;2.50;;;2.30;;
20230;SDS011;10274;49.022;9.338;2023-02-28T10:03:35;4.10;;;2.63;;
20230;SDS011;10274;49.022;9.338;2023-02-28T10:06:06;3.77;;;2.20;;
20230;SDS011;10274;49.022;9.338;2023-02-28T10:08:39;2.10;;;1.90;;
20230;SDS011;10274;49.022;9.338;2023-02-28T10:11:12;2.17;;;1.90;;
20230;SDS011;10274;49.022;9.338;2023-02-28T10:13:46;2.83;;;1.73;;
20230;SDS011;10274;49.022;9.338;2023-02-28T10:16:27;2.30;;;1.80;;
20230;SDS011;10274;49.022;9.338;2023-02-28T10:19:02;2.37;;;1.87;;
20230;SDS011;10274;49.022;9.338;2023-02-28T10:21:31;2.37;;;1.97;;
20230;SDS011;10274;49.022;9.338;2023-02-28T10:24:03;2.73;;;2.30;;
20230;SDS011;10274;49.022;9.338;2023-02-28T10:26:37;3.87;;;2.30;;
20230;SDS011;10274;49.022;9.338;2023-02-28T10:29:03;3.93;;;2.30;;
20230;SDS011;10274;49.022;9.338;2023-02-28T10:31:30;4.00;;;2.57;;
20230;SDS011;10274;49.022;9.338;2023-02-28T10:33:57;6.47;;;3.70;;
20230;SDS011;10274;49.022;9.338;2023-02-28T10:36:25;4.03;;;2.90;;
20230;SDS011;10274;49.022;9.338;2023-02-28T10:38:51;4.00;;;2.27;;
20230;SDS011;10274;49.022;9.338;2023-02-28T10:41:26;2.30;;;1.90;;
20230;SDS011;10274;49.022;9.338;2023-02-28T10:44:11;2.33;;;1.87;;
20230;SDS011;10274;49.022;9.338;2023-02-28T10:46:40;2.17;;;1.73;;
20230;SDS011;10274;49.022;9.338;2023-02-28T10:49:12;2.80;;;1.93;;
20230;SDS011;10274;49.022;9.338;2023-02-28T10:51:41;2.97;;;1.90;;
20230;SDS011;10274;49.022;9.338;2023-02-28T10:54:14;1.70;;;1.60;;
20230;SDS011;10274;49.022;9.338;2023-02-28T10:56:42;2.60;;;2.13;;
20230;SDS011;10274;49.022;9.338;2023-02-28T10:59:22;2.00;;;1.80;;
20230;SDS011;10274;49.022;9.338;2023-02-28T11:01:55;2.33;;;2.10;;
20230;SDS011;10274;49.022;9.338;2023-02-28T11:04:34;2.53;;;2.33;;
20230;SDS011;10274;49.022;9.338;2023-02-28T11:07:06;3.37;;;2.30;;
20230;SDS011;10274;49.022;9.338;2023-02-28T11:09:45;3.17;;;2.47;;
20230;SDS011;10274;49.022;9.338;2023-02-28T11:12:19;3.23;;;2.37;;
20230;SDS011;10274;49.022;9.338;2023-02-28T11:14:48;2.97;;;2.20;;
20230;SDS011;10274;49.022;9.338;2023-02-28T11:17:19;2.67;;;2.37;;
20230;SDS011;10274;49.022;9.338;2023-02-28T11:19:50;3.77;;;2.40;;
20230;SDS011;10274;49.022;9.338;2023-02-28T11:22:20;3.53;;;2.27;;
20230;SDS011;10274;49.022;9.338;2023-02-28T11:24:51;2.80;;;1.83;;
20230;SDS011;10274;49.022;9.338;2023-02-28T11:27:42;1.77;;;1.67;;
20230;SDS011;10274;49.022;9.338;2023-02-28T11:32:59;1.90;;;1.73;;
20230;SDS011;10274;49.022;9.338;2023-02-28T11:35:28;2.70;;;2.30;;
20230;SDS011;10274;49.022;9.338;2023-02-28T11:37:58;3.10;;;2.13;;
20230;SDS011;10274;49.022;9.338;2023-02-28T11:40:28;3.53;;;2.27;;
20230;SDS011;10274;49.022;9.338;2023-02-28T11:45:37;2.40;;;2.20;;
20230;SDS011;10274;49.022;9.338;2023-02-28T11:48:14;3.20;;;2.27;;
20230;SDS011;10274;49.022;9.338;2023-02-28T11:50:49;2.93;;;2.20;;
20230;SDS011;10274;49.022;9.338;2023-02-28T11:53:28;3.03;;;2.07;;
20230;SDS011;10274;49.022;9.338;2023-02-28T11:56:10;3.03;;;2.33;;
20230;SDS011;10274;49.022;9.338;2023-02-28T11:58:46;2.93;;;2.00;;
20230;SDS011;10274;49.022;9.338;2023-02-28T12:04:15;2.53;;;2.30;;
20230;SDS011;10274;49.022;9.338;2023-02-28T12:06:52;2.43;;;2.00;;
20230;SDS011;10274;49.022;9.338;2023-02-28T12:09:34;2.40;;;2.10;;
20230;SDS011;10274;49.022;9.338;2023-02-28T12:12:13;3.03;;;2.40;;
20230;SDS011;10274;49.022;9.338;2023-02-28T12:14:52;2.30;;;2.10;;
20230;SDS011;10274;49.022;9.338;2023-02-28T12:17:32;2.57;;;2.00;;
20230;SDS011;10274;49.022;9.338;2023-02-28T12:20:12;4.13;;;2.37;;
20230;SDS011;10274;49.022;9.338;2023-02-28T12:22:48;2.87;;;2.10;;
20230;SDS011;10274;49.022;9.338;2023-02-28T12:28:25;3.57;;;2.63;;
20230;SDS011;10274;49.022;9.338;2023-02-28T12:30:56;2.37;;;1.83;;
20230;SDS011;10274;49.022;9.338;2023-02-28T12:33:28;2.70;;;1.97;;
20230;SDS011;10274;49.022;9.338;2023-02-28T12:35:59;3.13;;;1.83;;
20230;SDS011;10274;49.022;9.338;2023-02-28T12:38:34;2.90;;;2.37;;
20230;SDS011;10274;49.022;9.338;2023-02-28T12:41:06;4.43;;;2.13;;
20230;SDS011;10274;49.022;9.338;2023-02-28T12:43:40;2.30;;;2.10;;
20230;SDS011;10274;49.022;9.338;2023-02-28T12:46:11;2.07;;;1.87;;
20230;SDS011;10274;49.022;9.338;2023-02-28T12:48:43;2.70;;;2.40;;
20230;SDS011;10274;49.022;9.338;2023-02-28T12:51:12;2.90;;;2.50;;
20230;SDS011;10274;49.022;9.338;2023-02-28T12:53:45;4.30;;;2.37;;
20230;SDS011;10274;49.022;9.338;2023-02-28T12:56:19;5.77;;;2.07;;
20230;SDS011;10274;49.022;9.338;2023-02-28T12:58:55;2.83;;;2.20;;
20230;SDS011;10274;49.022;9.338;2023-02-28T13:01:32;3.03;;;2.20;;
20230;SDS011;10274;49.022;9.338;2023-02-28T13:04:35;2.67;;;2.13;;
20230;SDS011;10274;49.022;9.338;2023-02-28T13:10:13;2.43;;;2.13;;
20230;SDS011;10274;49.022;9.338;2023-02-28T13:12:47;2.13;;;1.93;;
20230;SDS011;10274;49.022;9.338;2023-02-28T13:15:18;3.10;;;2.23;;
20230;SDS011;10274;49.022;9.338;2023-02-28T13:17:49;2.90;;;2.60;;
20230;SDS011;10274;49.022;9.338;2023-02-28T13:20:18;3.97;;;2.50;;
20230;SDS011;10274;49.022;9.338;2023-02-28T13:22:47;4.90;;;2.83;;
20230;SDS011;10274;49.022;9.338;2023-02-28T13:31:33;2.27;;;2.00;;
20230;SDS011;10274;49.022;9.338;2023-02-28T13:34:34;2.10;;;1.90;;
20230;SDS011;10274;49.022;9.338;2023-02-28T13:39:59;3.40;;;2.80;;
20230;SDS011;10274;49.022;9.338;2023-02-28T13:42:52;3.87;;;2.83;;
20230;SDS011;10274;49.022;9.338;2023-02-28T13:45:23;3.53;;;2.33;;
20230;SDS011;10274;49.022;9.338;2023-02-28T13:47:57;4.03;;;3.00;;
20230;SDS011;10274;49.022;9.338;2023-02-28T13:50:27;3.17;;;2.73;;
20230;SDS011;10274;49.022;9.338;2023-02-28T13:53:12;2.50;;;2.30;;
20230;SDS011;10274;49.022;9.338;2023-02-28T13:56:07;2.57;;;2.33;;
20230;SDS011;10274;49.022;9.338;2023-02-28T13:58:48;4.13;;;2.20;;
20230;SDS011;10274;49.022;9.338;2023-02-28T14:01:23;2.90;;;2.60;;
20230;SDS011;10274;49.022;9.338;2023-02-28T14:04:11;3.47;;;2.33;;
20230;SDS011;10274;49.022;9.338;2023-02-28T14:06:52;5.07;;;2.50;;
20230;SDS011;10274;49.022;9.338;2023-02-28T14:09:21;2.63;;;2.43;;
20230;SDS011;10274;49.022;9.338;2023-02-28T14:11:50;3.03;;;2.60;;
20230;SDS011;10274;49.022;9.338;2023-02-28T14:17:24;2.63;;;2.40;;
20230;SDS011;10274;49.022;9.338;2023-02-28T14:19:53;3.33;;;3.03;;
20230;SDS011;10274;49.022;9.338;2023-02-28T14:22:26;3.97;;;3.60;;
20230;SDS011;10274;49.022;9.338;2023-02-28T14:25:17;2.70;;;2.40;;
20230;SDS011;10274;49.022;9.338;2023-02-28T14:27:53;2.90;;;2.57;;
20230;SDS011;10274;49.022;9.338;2023-02-28T14:30:37;4.70;;;2.40;;
20230;SDS011;10274;49.022;9.338;2023-02-28T14:33:18;3.67;;;2.53;;
20230;SDS011;10274;49.022;9.338;2023-02-28T14:35:59;3.67;;;2.57;;
20230;SDS011;10274;49.022;9.338;2023-02-28T14:38:43;3.50;;;2.50;;
20230;SDS011;10274;49.022;9.338;2023-02-28T14:41:15;3.53;;;2.70;;
20230;SDS011;10274;49.022;9.338;2023-02-28T14:43:49;3.33;;;2.60;;
20230;SDS011;10274;49.022;9.338;2023-02-28T14:46:17;3.33;;;3.03;;
20230;SDS011;10274;49.022;9.338;2023-02-28T14:48:45;3.20;;;2.83;;
20230;SDS011;10274;49.022;9.338;2023-02-28T14:51:17;2.93;;;2.33;;
20230;SDS011;10274;49.022;9.338;2023-02-28T14:53:46;2.47;;;2.20;;
20230;SDS011;10274;49.022;9.338;2023-02-28T14:56:19;3.03;;;2.57;;
20230;SDS011;10274;49.022;9.338;2023-02-28T14:58:50;4.43;;;2.67;;
20230;SDS011;10274;49.022;9.338;2023-02-28T15:01:19;3.00;;;2.17;;
20230;SDS011;10274;49.022;9.338;2023-02-28T15:03:47;5.03;;;2.60;;
20230;SDS011;10274;49.022;9.338;2023-02-28T15:06:16;2.97;;;2.50;;
20230;SDS011;10274;49.022;9.338;2023-02-28T15:08:44;3.40;;;2.40;;
20230;SDS011;10274;49.022;9.338;2023-02-28T15:11:13;2.90;;;2.30;;
20230;SDS011;10274;49.022;9.338;2023-02-28T15:13:45;2.60;;;2.40;;
20230;SDS011;10274;49.022;9.338;2023-02-28T15:16:14;3.43;;;2.80;;
20230;SDS011;10274;49.022;9.338;2023-02-28T15:18:46;4.10;;;2.50;;
20230;SDS011;10274;49.022;9.338;2023-02-28T15:21:17;3.70;;;2.47;;
20230;SDS011;10274;49.022;9.338;2023-02-28T15:23:46;3.10;;;2.20;;
20230;SDS011;10274;49.022;9.338;2023-02-28T15:26:16;3.17;;;2.13;;
20230;SDS011;10274;49.022;9.338;2023-02-28T15:28:45;4.40;;;2.50;;
20230;SDS011;10274;49.022;9.338;2023-02-28T15:31:18;4.20;;;2.73;;
20230;SDS011;10274;49.022;9.338;2023-02-28T15:33:52;3.87;;;2.27;;
20230;SDS011;10274;49.022;9.338;2023-02-28T15:36:23;3.43;;;2.53;;
20230;SDS011;10274;49.022;9.338;2023-02-28T15:38:53;3.47;;;2.83;;